createdAt,value
2019-02-22T00:02:17.453Z,7.23
2019-02-22T00:04:46.188Z,8.27
2019-02-22T00:07:14.922Z,6.70
2019-02-22T00:09:49.497Z,7.53
2019-02-22T00:12:14.777Z,7.90
2019-02-22T00:14:43.482Z,7.53
2019-02-22T00:17:12.211Z,8.27
2019-02-22T00:19:40.912Z,7.70
2019-02-22T00:22:10.294Z,9.30
2019-02-22T00:24:40.000Z,6.77
2019-02-22T00:27:08.455Z,12.10
2019-02-22T00:29:37.831Z,7.47
2019-02-22T00:32:06.376Z,11.97
2019-02-22T00:34:34.997Z,8.77
2019-02-22T00:37:03.611Z,8.43
2019-02-22T00:39:33.602Z,7.70
2019-02-22T00:42:02.170Z,7.73
2019-02-22T00:44:32.080Z,6.03
2019-02-22T00:47:01.737Z,9.07
2019-02-22T00:49:30.288Z,8.43
2019-02-22T00:51:59.163Z,8.87
2019-02-22T00:54:27.710Z,9.60
2019-02-22T00:56:56.254Z,7.53
2019-02-22T00:59:24.861Z,7.70
2019-02-22T01:01:53.431Z,7.80
2019-02-22T01:04:24.194Z,10.23
2019-02-22T01:06:52.755Z,8.90
2019-02-22T01:09:21.343Z,7.80
2019-02-22T01:11:49.886Z,8.37
2019-02-22T01:14:19.534Z,7.43
2019-02-22T01:16:48.215Z,7.60
2019-02-22T01:19:17.030Z,8.00
2019-02-22T01:21:45.651Z,7.60
2019-02-22T01:24:15.423Z,7.73
2019-02-22T01:26:47.723Z,9.60
2019-02-22T01:29:16.248Z,7.33
2019-02-22T01:31:44.856Z,10.27
2019-02-22T01:34:13.446Z,7.53
2019-02-22T01:36:43.493Z,9.70
2019-02-22T01:39:12.104Z,10.10
2019-02-22T01:41:40.694Z,9.17
2019-02-22T01:44:18.403Z,9.33
2019-02-22T01:46:48.043Z,10.53
2019-02-22T01:49:16.597Z,11.23
2019-02-22T01:51:45.147Z,11.07
2019-02-22T01:54:13.703Z,11.13
2019-02-22T01:56:42.237Z,9.30
2019-02-22T01:59:10.797Z,9.80
2019-02-22T02:01:39.419Z,9.27
2019-02-22T02:04:08.058Z,8.23
2019-02-22T02:06:36.621Z,9.33
2019-02-22T02:09:05.921Z,8.27
2019-02-22T02:11:34.606Z,8.53
2019-02-22T02:14:03.177Z,9.20
2019-02-22T02:16:33.359Z,10.40
2019-02-22T02:19:01.930Z,8.27
2019-02-22T02:21:30.499Z,10.10
2019-02-22T02:24:01.451Z,9.33
2019-02-22T02:26:31.564Z,8.50
2019-02-22T02:29:01.464Z,11.30
2019-02-22T02:31:30.577Z,9.70
2019-02-22T02:34:00.194Z,11.13
2019-02-22T02:36:30.003Z,11.87
2019-02-22T02:38:59.251Z,12.17
2019-02-22T02:41:28.292Z,8.63
2019-02-22T02:43:56.886Z,8.57
2019-02-22T02:46:25.615Z,6.70
2019-02-22T02:48:55.105Z,8.53
2019-02-22T02:51:23.673Z,8.50
2019-02-22T02:53:52.222Z,8.73
2019-02-22T02:56:22.344Z,7.17
2019-02-22T02:58:50.912Z,7.50
2019-02-22T03:01:19.773Z,6.80
2019-02-22T03:03:48.932Z,10.73
2019-02-22T03:06:24.630Z,8.50
2019-02-22T03:08:53.248Z,7.40
2019-02-22T03:11:22.573Z,7.67
2019-02-22T03:13:51.172Z,10.57
2019-02-22T03:16:19.733Z,11.87
2019-02-22T03:18:49.914Z,9.20
2019-02-22T03:21:18.547Z,9.90
2019-02-22T03:23:47.079Z,10.30
2019-02-22T03:26:15.676Z,10.33
2019-02-22T03:29:03.591Z,9.47
2019-02-22T03:31:32.169Z,9.87
2019-02-22T03:34:01.451Z,9.07
2019-02-22T03:36:30.014Z,9.33
2019-02-22T03:38:58.567Z,8.13
2019-02-22T03:41:32.724Z,7.43
2019-02-22T03:44:00.680Z,8.87
2019-02-22T03:46:29.233Z,7.63
2019-02-22T03:49:00.494Z,8.70
2019-02-22T03:51:29.106Z,7.53
2019-02-22T03:53:59.239Z,8.97
2019-02-22T03:56:32.339Z,7.90
2019-02-22T03:59:02.047Z,8.93
2019-02-22T04:01:30.672Z,12.57
2019-02-22T04:03:59.905Z,10.13
2019-02-22T04:06:28.467Z,9.00
2019-02-22T04:08:57.023Z,8.90
2019-02-22T04:11:26.291Z,7.77
2019-02-22T04:13:56.677Z,7.23
2019-02-22T04:16:25.893Z,8.33
2019-02-22T04:18:55.528Z,7.53
2019-02-22T04:21:25.069Z,7.50
2019-02-22T04:23:53.682Z,7.10
2019-02-22T04:26:22.368Z,10.37
2019-02-22T04:28:54.288Z,6.90
2019-02-22T04:31:23.665Z,4.97
2019-02-22T04:33:53.283Z,6.40
2019-02-22T04:36:25.146Z,7.50
2019-02-22T04:38:53.732Z,7.70
2019-02-22T04:41:22.301Z,6.47
2019-02-22T04:43:50.958Z,7.57
2019-02-22T04:46:20.350Z,9.77
2019-02-22T04:48:50.108Z,9.60
2019-02-22T04:51:18.710Z,7.17
2019-02-22T04:53:50.457Z,7.23
2019-02-22T04:56:26.286Z,8.00
2019-02-22T04:58:54.856Z,9.63
2019-02-22T05:01:23.418Z,8.40
2019-02-22T05:03:51.968Z,8.10
2019-02-22T05:06:20.551Z,8.10
2019-02-22T05:08:49.128Z,6.93
2019-02-22T05:11:17.683Z,7.80
2019-02-22T05:13:46.287Z,6.13
2019-02-22T05:16:16.176Z,7.87
2019-02-22T05:18:46.023Z,8.30
2019-02-22T05:21:14.673Z,7.87
2019-02-22T05:23:46.310Z,8.40
2019-02-22T05:26:15.000Z,7.43
2019-02-22T05:28:43.555Z,8.30
2019-02-22T05:31:12.118Z,7.23
2019-02-22T05:33:40.722Z,11.43
2019-02-22T05:36:09.327Z,7.67
2019-02-22T05:38:37.955Z,10.38
2019-02-22T05:41:06.605Z,7.60
2019-02-22T05:43:35.177Z,8.10
2019-02-22T05:46:03.745Z,10.00
2019-02-22T05:48:32.329Z,6.40
2019-02-22T05:51:01.082Z,8.87
2019-02-22T05:53:29.736Z,10.10
2019-02-22T05:55:58.298Z,10.60
2019-02-22T05:58:26.882Z,9.13
2019-02-22T06:00:55.452Z,7.77
2019-02-22T06:03:26.296Z,7.30
2019-02-22T06:05:56.912Z,9.10
2019-02-22T06:08:28.242Z,7.97
2019-02-22T06:10:57.195Z,8.23
2019-02-22T06:13:28.188Z,6.87
2019-02-22T06:15:57.686Z,10.90
2019-02-22T06:18:26.609Z,7.87
2019-02-22T06:20:55.294Z,7.20
2019-02-22T06:23:23.967Z,6.73
2019-02-22T06:25:52.552Z,9.30
2019-02-22T06:28:25.661Z,7.90
2019-02-22T06:30:54.650Z,9.90
2019-02-22T06:33:23.236Z,8.03
2019-02-22T06:35:51.952Z,9.80
2019-02-22T06:38:21.736Z,8.70
2019-02-22T06:40:50.303Z,10.40
2019-02-22T06:43:18.880Z,8.30
2019-02-22T06:45:47.470Z,8.33
2019-02-22T06:48:16.034Z,7.63
2019-02-22T06:50:44.659Z,8.33
2019-02-22T06:53:13.322Z,9.60
2019-02-22T06:55:41.951Z,7.93
2019-02-22T06:58:11.833Z,10.10
2019-02-22T07:00:40.553Z,10.53
2019-02-22T07:03:09.192Z,11.03
2019-02-22T07:05:37.783Z,9.43
2019-02-22T07:08:06.374Z,10.37
2019-02-22T07:10:36.581Z,8.80
2019-02-22T07:13:06.804Z,10.37
2019-02-22T07:15:35.477Z,9.57
2019-02-22T07:18:04.088Z,11.40
2019-02-22T07:20:32.647Z,12.37
2019-02-22T07:23:01.310Z,10.43
2019-02-22T07:25:29.854Z,9.80
2019-02-22T07:27:58.624Z,12.23
2019-02-22T07:30:28.011Z,7.97
2019-02-22T07:32:56.610Z,8.43
2019-02-22T07:35:26.540Z,9.57
2019-02-22T07:37:55.140Z,8.97
2019-02-22T07:40:23.705Z,8.50
2019-02-22T07:42:52.280Z,6.70
2019-02-22T07:45:20.883Z,10.30
2019-02-22T07:47:49.442Z,7.50
2019-02-22T07:50:18.054Z,10.17
2019-02-22T07:52:46.642Z,8.53
2019-02-22T07:55:15.222Z,6.37
2019-02-22T07:57:43.782Z,6.80
2019-02-22T08:00:14.572Z,7.53
2019-02-22T08:02:43.351Z,5.67
2019-02-22T08:05:11.984Z,6.03
2019-02-22T08:07:40.582Z,7.50
2019-02-22T08:10:09.262Z,6.83
2019-02-22T08:12:37.895Z,8.47
2019-02-22T08:15:08.721Z,6.40
2019-02-22T08:17:38.317Z,7.40
2019-02-22T08:20:09.163Z,7.47
2019-02-22T08:22:37.775Z,6.60
2019-02-22T08:25:07.459Z,7.57
2019-02-22T08:27:36.020Z,7.40
2019-02-22T08:30:06.839Z,11.23
2019-02-22T08:32:35.505Z,4.80
2019-02-22T08:35:04.448Z,9.47
2019-02-22T08:37:33.010Z,8.83
2019-02-22T08:40:02.599Z,6.87
2019-02-22T08:42:31.601Z,6.43
2019-02-22T08:45:00.312Z,7.80
2019-02-22T08:47:29.068Z,6.13
2019-02-22T08:49:57.644Z,5.83
2019-02-22T08:52:29.275Z,6.97
2019-02-22T08:54:57.951Z,8.57
2019-02-22T08:57:26.587Z,9.07
2019-02-22T08:59:55.187Z,10.03
2019-02-22T09:02:23.719Z,8.33
2019-02-22T09:04:52.345Z,7.60
2019-02-22T09:07:21.010Z,5.60
2019-02-22T09:09:49.559Z,9.30
2019-02-22T09:12:18.111Z,7.07
2019-02-22T09:18:20.803Z,8.13
2019-02-22T09:20:49.389Z,10.53
2019-02-22T09:23:18.517Z,9.43
2019-02-22T09:25:47.556Z,10.90
2019-02-22T09:28:16.110Z,8.07
2019-02-22T09:30:44.673Z,6.83
2019-02-22T09:33:13.705Z,6.00
2019-02-22T09:35:42.290Z,6.30
2019-02-22T09:38:12.530Z,7.23
2019-02-22T09:40:41.134Z,6.23
2019-02-22T09:43:09.707Z,4.43
2019-02-22T09:45:39.031Z,4.33
2019-02-22T09:48:07.616Z,3.93
2019-02-22T09:50:37.524Z,4.90
2019-02-22T09:53:06.090Z,5.10
2019-02-22T09:55:36.158Z,6.10
2019-02-22T09:58:05.751Z,5.27
2019-02-22T10:00:34.357Z,7.27
2019-02-22T10:03:03.323Z,8.43
2019-02-22T10:05:31.963Z,7.10
2019-02-22T10:08:01.573Z,6.97
2019-02-22T10:10:30.158Z,8.57
2019-02-22T10:13:01.435Z,6.00
2019-02-22T10:15:31.063Z,7.07
2019-02-22T10:18:03.060Z,5.37
2019-02-22T10:20:33.202Z,5.47
2019-02-22T10:23:03.694Z,6.97
2019-02-22T10:25:32.922Z,6.73
2019-02-22T10:28:03.008Z,7.67
2019-02-22T10:33:22.916Z,6.73
2019-02-22T10:36:00.322Z,7.17
2019-02-22T10:38:35.870Z,6.20
2019-02-22T10:41:03.773Z,10.00
2019-02-22T10:43:34.076Z,12.07
2019-02-22T10:46:04.219Z,7.13
2019-02-22T10:48:32.767Z,7.20
2019-02-22T10:51:02.450Z,5.77
2019-02-22T10:53:31.045Z,5.00
2019-02-22T10:55:59.621Z,5.73
2019-02-22T10:58:28.255Z,7.37
2019-02-22T11:00:56.779Z,5.47
2019-02-22T11:03:27.397Z,5.77
2019-02-22T11:05:56.017Z,8.50
2019-02-22T11:08:26.348Z,6.17
2019-02-22T11:10:57.810Z,6.40
2019-02-22T11:13:27.908Z,7.07
2019-02-22T11:16:02.557Z,6.30
2019-02-22T11:18:32.790Z,6.80
2019-02-22T11:21:01.283Z,7.27
2019-02-22T11:23:29.882Z,7.27
2019-02-22T11:26:01.978Z,8.97
2019-02-22T11:28:30.503Z,6.23
2019-02-22T11:30:59.098Z,8.17
2019-02-22T11:33:31.291Z,7.80
2019-02-22T11:36:03.439Z,6.93
2019-02-22T11:38:32.679Z,7.57
2019-02-22T11:41:01.271Z,8.30
2019-02-22T11:43:32.629Z,11.60
2019-02-22T11:46:01.246Z,6.93
2019-02-22T11:48:33.051Z,11.00
2019-02-22T11:51:01.566Z,23.40
2019-02-22T11:53:31.782Z,8.80
2019-02-22T11:56:01.237Z,5.23
2019-02-22T11:58:29.870Z,8.27
2019-02-22T12:01:01.044Z,10.33
2019-02-22T12:03:30.751Z,6.00
2019-02-22T12:06:00.973Z,7.00
2019-02-22T12:08:29.616Z,12.80
2019-02-22T12:10:58.313Z,6.43
2019-02-22T12:13:26.878Z,7.87
2019-02-22T12:15:57.681Z,8.73
2019-02-22T12:18:27.496Z,10.87
2019-02-22T12:20:57.699Z,7.83
2019-02-22T12:23:26.286Z,6.97
2019-02-22T12:25:56.188Z,6.77
2019-02-22T12:28:28.500Z,6.67
2019-02-22T12:34:31.397Z,12.93
2019-02-22T12:37:02.016Z,18.83
2019-02-22T12:39:31.998Z,6.07
2019-02-22T12:42:03.518Z,8.20
2019-02-22T12:44:32.113Z,10.67
2019-02-22T12:47:01.371Z,10.90
2019-02-22T12:49:29.923Z,7.10
2019-02-22T12:51:59.967Z,6.80
2019-02-22T12:54:47.099Z,6.23
2019-02-22T12:57:17.059Z,11.33
2019-02-22T12:59:45.665Z,6.73
2019-02-22T13:02:14.253Z,8.00
2019-02-22T13:04:42.931Z,10.47
2019-02-22T13:07:13.189Z,6.73
2019-02-22T13:09:43.684Z,20.77
2019-02-22T13:12:14.575Z,16.20
2019-02-22T13:14:42.495Z,6.47
2019-02-22T13:17:11.942Z,4.80
2019-02-22T13:19:41.866Z,7.13
2019-02-22T13:22:12.191Z,7.93
2019-02-22T13:24:40.768Z,6.17
2019-02-22T13:27:09.436Z,6.63
2019-02-22T13:29:38.113Z,6.70
2019-02-22T13:32:06.912Z,8.70
2019-02-22T13:34:36.576Z,7.97
2019-02-22T13:37:05.866Z,6.27
2019-02-22T13:39:42.772Z,6.00
2019-02-22T13:42:09.452Z,6.60
2019-02-22T13:44:46.666Z,7.40
2019-02-22T13:47:24.284Z,8.43
2019-02-22T13:49:56.239Z,5.43
2019-02-22T13:52:25.370Z,10.60
2019-02-22T13:54:53.952Z,7.60
2019-02-22T13:57:22.711Z,9.00
2019-02-22T13:59:54.507Z,8.03
2019-02-22T14:02:24.715Z,9.90
2019-02-22T14:04:55.527Z,7.67
2019-02-22T14:07:24.210Z,4.83
2019-02-22T14:09:54.020Z,3.47
2019-02-22T14:12:23.138Z,10.50
2019-02-22T14:15:00.341Z,9.53
2019-02-22T14:21:12.126Z,5.73
2019-02-22T14:23:43.182Z,7.20
2019-02-22T14:26:15.716Z,7.53
2019-02-22T14:28:45.458Z,6.87
2019-02-22T14:34:55.552Z,10.67
2019-02-22T14:37:24.312Z,13.83
2019-02-22T14:40:01.076Z,5.27
2019-02-22T14:42:23.234Z,5.07
2019-02-22T14:44:51.788Z,9.57
2019-02-22T14:47:20.486Z,7.70
2019-02-22T14:49:49.130Z,6.53
2019-02-22T14:52:21.659Z,8.17
2019-02-22T14:54:50.516Z,9.80
2019-02-22T14:57:21.685Z,5.03
2019-02-22T14:59:50.818Z,6.43
2019-02-22T15:02:22.413Z,7.27
2019-02-22T15:04:59.435Z,7.70
2019-02-22T15:07:29.806Z,7.43
2019-02-22T15:10:07.874Z,8.60
2019-02-22T15:12:36.424Z,5.63
2019-02-22T15:15:13.609Z,6.63
2019-02-22T15:17:46.277Z,9.17
2019-02-22T15:20:20.877Z,4.27
2019-02-22T15:22:49.438Z,8.60
2019-02-22T15:25:21.440Z,5.43
2019-02-22T15:27:51.502Z,9.20
2019-02-22T15:30:20.193Z,8.87
2019-02-22T15:32:50.031Z,8.37
2019-02-22T15:35:21.403Z,6.03
2019-02-22T15:37:49.987Z,8.93
2019-02-22T15:40:19.068Z,5.53
2019-02-22T15:42:47.592Z,9.13
2019-02-22T15:45:18.615Z,5.63
2019-02-22T15:47:48.756Z,8.67
2019-02-22T15:50:18.525Z,8.73
2019-02-22T15:52:51.024Z,11.70
2019-02-22T15:55:22.134Z,8.83
2019-02-22T15:57:50.765Z,6.50
2019-02-22T16:00:24.000Z,8.97
2019-02-22T16:02:54.311Z,9.43
2019-02-22T16:05:30.260Z,9.60
2019-02-22T16:07:59.878Z,6.27
2019-02-22T16:10:28.431Z,9.77
2019-02-22T16:12:58.477Z,8.67
2019-02-22T16:15:29.633Z,8.27
2019-02-22T16:17:58.854Z,12.73
2019-02-22T16:20:27.395Z,9.10
2019-02-22T16:22:56.003Z,7.93
2019-02-22T16:25:28.382Z,14.70
2019-02-22T16:27:59.871Z,11.33
2019-02-22T16:30:31.044Z,13.00
2019-02-22T16:33:02.497Z,12.43
2019-02-22T16:35:34.051Z,12.07
2019-02-22T16:38:04.163Z,18.80
2019-02-22T16:40:34.834Z,13.50
2019-02-22T16:43:06.204Z,12.57
2019-02-22T16:45:36.118Z,15.27
2019-02-22T16:48:06.088Z,13.73
2019-02-22T16:50:35.787Z,19.07
2019-02-22T16:53:05.230Z,13.67
2019-02-22T16:55:34.387Z,15.17
2019-02-22T16:58:04.632Z,20.83
2019-02-22T17:00:34.812Z,13.93
2019-02-22T17:03:05.088Z,18.27
2019-02-22T17:05:35.956Z,12.50
2019-02-22T17:08:08.435Z,11.10
2019-02-22T17:10:37.639Z,12.17
2019-02-22T17:13:13.247Z,13.47
2019-02-22T17:15:42.043Z,18.70
2019-02-22T17:18:10.923Z,13.83
2019-02-22T17:20:39.586Z,12.77
2019-02-22T17:23:09.689Z,14.23
2019-02-22T17:25:39.747Z,15.37
2019-02-22T17:28:08.340Z,14.13
2019-02-22T17:30:41.039Z,12.90
2019-02-22T17:33:11.223Z,12.27
2019-02-22T17:35:44.229Z,14.90
2019-02-22T17:38:14.509Z,17.23
2019-02-22T17:40:52.956Z,17.83
2019-02-22T17:43:23.115Z,14.27
2019-02-22T17:45:51.713Z,19.70
2019-02-22T17:48:23.999Z,17.87
2019-02-22T17:50:53.617Z,18.57
2019-02-22T17:53:22.169Z,10.00
2019-02-22T17:55:52.747Z,18.23
2019-02-22T17:58:24.390Z,17.87
2019-02-22T18:00:51.887Z,15.00
2019-02-22T18:03:21.536Z,11.53
2019-02-22T18:05:52.349Z,14.77
2019-02-22T18:08:22.999Z,13.60
2019-02-22T18:10:54.879Z,12.80
2019-02-22T18:13:26.337Z,22.90
2019-02-22T18:16:02.691Z,17.40
2019-02-22T18:18:35.929Z,19.17
2019-02-22T18:21:15.057Z,13.50
2019-02-22T18:23:45.839Z,16.60
2019-02-22T18:26:22.084Z,14.40
2019-02-22T18:28:55.525Z,19.47
2019-02-22T18:31:30.224Z,21.60
2019-02-22T18:33:58.835Z,14.20
2019-02-22T18:36:27.377Z,13.00
2019-02-22T18:38:55.939Z,15.80
2019-02-22T18:41:24.515Z,17.80
2019-02-22T18:43:53.083Z,14.83
2019-02-22T18:46:22.059Z,14.17
2019-02-22T18:48:50.566Z,16.17
2019-02-22T18:51:19.379Z,14.30
2019-02-22T18:53:47.985Z,16.40
2019-02-22T18:56:16.605Z,17.47
2019-02-22T18:58:45.164Z,18.10
2019-02-22T19:01:13.756Z,13.90
2019-02-22T19:03:44.358Z,18.70
2019-02-22T19:06:12.911Z,17.90
2019-02-22T19:08:41.562Z,17.73
2019-02-22T19:11:10.149Z,15.63
2019-02-22T19:13:38.741Z,13.63
2019-02-22T19:16:07.326Z,15.87
2019-02-22T19:18:35.858Z,19.17
2019-02-22T19:21:04.439Z,16.47
2019-02-22T19:23:32.997Z,14.90
2019-02-22T19:26:01.584Z,12.83
2019-02-22T19:28:30.129Z,17.07
2019-02-22T19:30:58.718Z,16.80
2019-02-22T19:33:27.312Z,12.07
2019-02-22T19:35:55.908Z,14.43
2019-02-22T19:38:24.425Z,18.50
2019-02-22T19:40:53.025Z,17.00
2019-02-22T19:43:21.600Z,17.47
2019-02-22T19:45:50.167Z,19.37
2019-02-22T19:48:18.815Z,19.73
2019-02-22T19:50:47.385Z,17.53
2019-02-22T19:53:15.947Z,16.57
2019-02-22T19:55:44.841Z,15.87
2019-02-22T19:58:13.416Z,16.57
2019-02-22T20:00:41.978Z,18.17
2019-02-22T20:03:10.644Z,14.57
2019-02-22T20:05:39.194Z,20.70
2019-02-22T20:08:07.753Z,16.80
2019-02-22T20:10:38.054Z,21.93
2019-02-22T20:13:06.606Z,16.53
2019-02-22T20:15:35.361Z,20.27
2019-02-22T20:18:07.066Z,18.30
2019-02-22T20:20:35.624Z,17.73
2019-02-22T20:23:04.245Z,16.13
2019-02-22T20:25:32.849Z,22.03
2019-02-22T20:28:01.417Z,19.30
2019-02-22T20:30:30.042Z,16.20
2019-02-22T20:32:58.647Z,15.23
2019-02-22T20:35:29.212Z,16.47
2019-02-22T20:37:57.751Z,19.03
2019-02-22T20:40:26.350Z,16.70
2019-02-22T20:42:54.854Z,17.07
2019-02-22T20:45:23.495Z,19.17
2019-02-22T20:47:52.127Z,15.10
2019-02-22T20:50:20.692Z,16.23
2019-02-22T20:52:49.258Z,18.87
2019-02-22T20:55:17.846Z,18.23
2019-02-22T20:57:47.493Z,18.43
2019-02-22T21:00:20.949Z,15.67
2019-02-22T21:02:49.534Z,14.07
2019-02-22T21:05:19.632Z,14.77
2019-02-22T21:07:49.370Z,17.37
2019-02-22T21:10:21.897Z,16.27
2019-02-22T21:12:50.999Z,15.23
2019-02-22T21:15:19.564Z,17.57
2019-02-22T21:17:48.177Z,18.87
2019-02-22T21:20:21.766Z,17.33
2019-02-22T21:22:50.306Z,15.53
2019-02-22T21:25:18.982Z,18.17
2019-02-22T21:27:47.526Z,16.73
2019-02-22T21:30:17.495Z,19.00
2019-02-22T21:32:46.098Z,13.77
2019-02-22T21:35:14.680Z,17.20
2019-02-22T21:37:44.118Z,15.60
2019-02-22T21:40:14.007Z,15.00
2019-02-22T21:42:42.564Z,17.57
2019-02-22T21:45:15.646Z,15.37
2019-02-22T21:47:54.152Z,16.10
2019-02-22T21:50:16.400Z,19.67
2019-02-22T21:52:45.080Z,14.20
2019-02-22T21:55:14.767Z,14.10
2019-02-22T21:57:45.188Z,12.93
2019-02-22T22:00:16.506Z,14.90
2019-02-22T22:02:45.078Z,14.17
2019-02-22T22:05:13.703Z,16.33
2019-02-22T22:07:42.551Z,27.03
2019-02-22T22:10:11.160Z,19.13
2019-02-22T22:12:39.714Z,16.97
2019-02-22T22:15:13.726Z,17.13
2019-02-22T22:17:42.288Z,17.47
2019-02-22T22:20:11.532Z,18.67
2019-02-22T22:22:40.119Z,16.40
2019-02-22T22:25:11.741Z,15.93
2019-02-22T22:27:40.302Z,18.13
2019-02-22T22:30:11.887Z,19.77
2019-02-22T22:32:40.512Z,17.90
2019-02-22T22:35:18.186Z,17.80
2019-02-22T22:37:47.782Z,21.17
2019-02-22T22:40:17.887Z,20.10
2019-02-22T22:42:46.556Z,18.40
2019-02-22T22:45:18.840Z,18.53
2019-02-22T22:47:48.768Z,21.20
2019-02-22T22:50:23.418Z,33.03
2019-02-22T22:52:53.595Z,18.53
2019-02-22T22:55:24.551Z,15.53
2019-02-22T22:57:53.130Z,17.03
2019-02-22T23:00:29.248Z,22.80
2019-02-22T23:03:00.753Z,19.23
2019-02-22T23:05:30.553Z,19.73
2019-02-22T23:07:59.114Z,17.20
2019-02-22T23:10:27.728Z,17.77
2019-02-22T23:12:56.600Z,15.13
2019-02-22T23:15:26.099Z,20.17
2019-02-22T23:17:58.845Z,17.57
2019-02-22T23:20:27.359Z,18.47
2019-02-22T23:22:55.927Z,19.87
2019-02-22T23:25:26.162Z,22.40
2019-02-22T23:27:56.255Z,21.93
2019-02-22T23:30:28.450Z,18.20
2019-02-22T23:32:57.448Z,20.60
2019-02-22T23:35:33.147Z,22.63
2019-02-22T23:38:04.006Z,18.07
2019-02-22T23:40:35.878Z,21.97
2019-02-22T23:43:06.326Z,16.33
2019-02-22T23:45:42.144Z,19.43
2019-02-22T23:48:11.275Z,18.40
2019-02-22T23:50:42.285Z,18.13
2019-02-22T23:53:19.009Z,16.83
2019-02-22T23:55:48.255Z,19.97
2019-02-22T23:58:17.302Z,21.47
